sensor_id;sensor_type;location;lat;lon;timestamp;P1;durP1;ratioP1;P2;durP2;ratioP2
18933;SDS011;9599;53.706;10.384;2023-04-24T00:00:15;5.40;;;4.90;;
18933;SDS011;9599;53.706;10.384;2023-04-24T00:02:44;5.93;;;4.93;;
18933;SDS011;9599;53.706;10.384;2023-04-24T00:05:14;6.60;;;5.30;;
18933;SDS011;9599;53.706;10.384;2023-04-24T00:07:44;6.10;;;5.50;;
18933;SDS011;9599;53.706;10.384;2023-04-24T00:10:12;7.00;;;5.30;;
18933;SDS011;9599;53.706;10.384;2023-04-24T00:12:40;6.23;;;5.50;;
18933;SDS011;9599;53.706;10.384;2023-04-24T00:15:08;6.93;;;5.33;;
18933;SDS011;9599;53.706;10.384;2023-04-24T00:17:37;6.17;;;5.30;;
18933;SDS011;9599;53.706;10.384;2023-04-24T00:20:05;7.90;;;5.90;;
18933;SDS011;9599;53.706;10.384;2023-04-24T00:22:34;7.23;;;5.80;;
18933;SDS011;9599;53.706;10.384;2023-04-24T00:25:03;7.67;;;5.90;;
18933;SDS011;9599;53.706;10.384;2023-04-24T00:27:32;7.07;;;6.07;;
18933;SDS011;9599;53.706;10.384;2023-04-24T00:30:01;7.10;;;6.30;;
18933;SDS011;9599;53.706;10.384;2023-04-24T00:32:30;7.03;;;6.33;;
18933;SDS011;9599;53.706;10.384;2023-04-24T00:34:58;7.40;;;6.00;;
18933;SDS011;9599;53.706;10.384;2023-04-24T00:37:26;7.40;;;5.80;;
18933;SDS011;9599;53.706;10.384;2023-04-24T00:39:55;7.33;;;6.00;;
18933;SDS011;9599;53.706;10.384;2023-04-24T00:42:24;8.87;;;6.10;;
18933;SDS011;9599;53.706;10.384;2023-04-24T00:44:52;7.30;;;6.27;;
18933;SDS011;9599;53.706;10.384;2023-04-24T00:47:21;7.53;;;6.27;;
18933;SDS011;9599;53.706;10.384;2023-04-24T00:49:49;7.40;;;6.30;;
18933;SDS011;9599;53.706;10.384;2023-04-24T00:52:18;7.77;;;6.73;;
18933;SDS011;9599;53.706;10.384;2023-04-24T00:54:46;6.80;;;6.07;;
18933;SDS011;9599;53.706;10.384;2023-04-24T00:57:14;7.90;;;6.53;;
18933;SDS011;9599;53.706;10.384;2023-04-24T00:59:45;8.03;;;6.40;;
18933;SDS011;9599;53.706;10.384;2023-04-24T01:02:13;8.07;;;6.90;;
18933;SDS011;9599;53.706;10.384;2023-04-24T01:04:42;8.83;;;6.13;;
18933;SDS011;9599;53.706;10.384;2023-04-24T01:07:11;6.90;;;6.20;;
18933;SDS011;9599;53.706;10.384;2023-04-24T01:09:39;8.90;;;6.10;;
18933;SDS011;9599;53.706;10.384;2023-04-24T01:12:08;9.13;;;5.97;;
18933;SDS011;9599;53.706;10.384;2023-04-24T01:14:37;8.20;;;6.07;;
18933;SDS011;9599;53.706;10.384;2023-04-24T01:17:06;7.90;;;5.83;;
18933;SDS011;9599;53.706;10.384;2023-04-24T01:19:35;7.80;;;6.33;;
18933;SDS011;9599;53.706;10.384;2023-04-24T01:24:37;6.43;;;5.73;;
18933;SDS011;9599;53.706;10.384;2023-04-24T01:27:06;8.00;;;6.47;;
18933;SDS011;9599;53.706;10.384;2023-04-24T01:29:34;7.33;;;6.00;;
18933;SDS011;9599;53.706;10.384;2023-04-24T01:32:02;6.87;;;6.10;;
18933;SDS011;9599;53.706;10.384;2023-04-24T01:34:31;8.63;;;6.00;;
18933;SDS011;9599;53.706;10.384;2023-04-24T01:36:59;8.30;;;6.57;;
18933;SDS011;9599;53.706;10.384;2023-04-24T01:39:28;8.57;;;6.43;;
18933;SDS011;9599;53.706;10.384;2023-04-24T01:41:56;8.67;;;6.60;;
18933;SDS011;9599;53.706;10.384;2023-04-24T01:44:24;7.77;;;6.10;;
18933;SDS011;9599;53.706;10.384;2023-04-24T01:46:52;7.10;;;6.10;;
18933;SDS011;9599;53.706;10.384;2023-04-24T01:49:22;7.77;;;6.10;;
18933;SDS011;9599;53.706;10.384;2023-04-24T01:51:50;6.70;;;5.83;;
18933;SDS011;9599;53.706;10.384;2023-04-24T01:54:18;7.60;;;6.00;;
18933;SDS011;9599;53.706;10.384;2023-04-24T01:56:48;6.33;;;5.57;;
18933;SDS011;9599;53.706;10.384;2023-04-24T01:59:16;6.77;;;5.63;;
18933;SDS011;9599;53.706;10.384;2023-04-24T02:01:45;7.13;;;6.03;;
18933;SDS011;9599;53.706;10.384;2023-04-24T02:04:13;6.70;;;5.63;;
18933;SDS011;9599;53.706;10.384;2023-04-24T02:06:41;7.20;;;5.77;;
18933;SDS011;9599;53.706;10.384;2023-04-24T02:09:09;7.10;;;5.97;;
18933;SDS011;9599;53.706;10.384;2023-04-24T02:11:37;7.37;;;6.13;;
18933;SDS011;9599;53.706;10.384;2023-04-24T02:14:07;7.63;;;6.03;;
18933;SDS011;9599;53.706;10.384;2023-04-24T02:16:35;7.13;;;5.80;;
18933;SDS011;9599;53.706;10.384;2023-04-24T02:19:03;6.60;;;5.43;;
18933;SDS011;9599;53.706;10.384;2023-04-24T02:21:31;6.77;;;5.30;;
18933;SDS011;9599;53.706;10.384;2023-04-24T02:24:00;6.13;;;5.03;;
18933;SDS011;9599;53.706;10.384;2023-04-24T02:26:28;6.23;;;5.43;;
18933;SDS011;9599;53.706;10.384;2023-04-24T02:28:57;6.43;;;5.17;;
18933;SDS011;9599;53.706;10.384;2023-04-24T02:31:27;7.53;;;5.27;;
18933;SDS011;9599;53.706;10.384;2023-04-24T02:33:55;5.77;;;4.87;;
18933;SDS011;9599;53.706;10.384;2023-04-24T02:36:23;6.10;;;5.10;;
18933;SDS011;9599;53.706;10.384;2023-04-24T02:38:51;5.63;;;4.90;;
18933;SDS011;9599;53.706;10.384;2023-04-24T02:41:19;6.07;;;5.03;;
18933;SDS011;9599;53.706;10.384;2023-04-24T02:43:47;7.00;;;5.20;;
18933;SDS011;9599;53.706;10.384;2023-04-24T02:46:15;6.03;;;5.23;;
18933;SDS011;9599;53.706;10.384;2023-04-24T02:48:45;6.33;;;5.00;;
18933;SDS011;9599;53.706;10.384;2023-04-24T02:51:13;7.20;;;5.07;;
18933;SDS011;9599;53.706;10.384;2023-04-24T02:53:40;5.90;;;4.77;;
18933;SDS011;9599;53.706;10.384;2023-04-24T02:56:08;5.47;;;4.60;;
18933;SDS011;9599;53.706;10.384;2023-04-24T02:58:38;6.47;;;4.80;;
18933;SDS011;9599;53.706;10.384;2023-04-24T03:01:06;4.90;;;4.30;;
18933;SDS011;9599;53.706;10.384;2023-04-24T03:03:34;4.70;;;4.13;;
18933;SDS011;9599;53.706;10.384;2023-04-24T03:06:03;4.90;;;4.20;;
18933;SDS011;9599;53.706;10.384;2023-04-24T03:08:32;5.37;;;4.30;;
18933;SDS011;9599;53.706;10.384;2023-04-24T03:11:00;4.30;;;3.90;;
18933;SDS011;9599;53.706;10.384;2023-04-24T03:13:28;4.30;;;3.80;;
18933;SDS011;9599;53.706;10.384;2023-04-24T03:15:55;4.27;;;3.87;;
18933;SDS011;9599;53.706;10.384;2023-04-24T03:18:23;4.63;;;3.30;;
18933;SDS011;9599;53.706;10.384;2023-04-24T03:20:51;4.20;;;3.40;;
18933;SDS011;9599;53.706;10.384;2023-04-24T03:23:21;3.93;;;3.20;;
18933;SDS011;9599;53.706;10.384;2023-04-24T03:25:48;5.77;;;3.27;;
18933;SDS011;9599;53.706;10.384;2023-04-24T03:28:18;4.37;;;3.23;;
18933;SDS011;9599;53.706;10.384;2023-04-24T03:30:52;3.17;;;2.87;;
18933;SDS011;9599;53.706;10.384;2023-04-24T03:33:22;4.33;;;3.10;;
18933;SDS011;9599;53.706;10.384;2023-04-24T03:35:57;3.00;;;2.73;;
18933;SDS011;9599;53.706;10.384;2023-04-24T03:38:33;3.20;;;2.90;;
18933;SDS011;9599;53.706;10.384;2023-04-24T03:41:24;4.03;;;2.83;;
18933;SDS011;9599;53.706;10.384;2023-04-24T03:44:11;3.53;;;2.93;;
18933;SDS011;9599;53.706;10.384;2023-04-24T03:46:40;3.20;;;2.80;;
18933;SDS011;9599;53.706;10.384;2023-04-24T03:49:08;3.20;;;2.70;;
18933;SDS011;9599;53.706;10.384;2023-04-24T03:51:42;3.30;;;2.70;;
18933;SDS011;9599;53.706;10.384;2023-04-24T03:54:23;2.63;;;2.43;;
18933;SDS011;9599;53.706;10.384;2023-04-24T03:56:52;2.70;;;2.50;;
18933;SDS011;9599;53.706;10.384;2023-04-24T03:59:21;3.27;;;2.60;;
18933;SDS011;9599;53.706;10.384;2023-04-24T04:02:03;3.37;;;2.60;;
18933;SDS011;9599;53.706;10.384;2023-04-24T04:04:31;2.50;;;2.30;;
18933;SDS011;9599;53.706;10.384;2023-04-24T04:06:59;2.80;;;2.60;;
18933;SDS011;9599;53.706;10.384;2023-04-24T04:09:31;3.00;;;2.53;;
18933;SDS011;9599;53.706;10.384;2023-04-24T04:12:00;2.87;;;2.37;;
18933;SDS011;9599;53.706;10.384;2023-04-24T04:14:28;2.53;;;2.33;;
18933;SDS011;9599;53.706;10.384;2023-04-24T04:16:56;2.60;;;2.40;;
18933;SDS011;9599;53.706;10.384;2023-04-24T04:19:24;2.33;;;2.13;;
18933;SDS011;9599;53.706;10.384;2023-04-24T04:21:52;2.77;;;2.20;;
18933;SDS011;9599;53.706;10.384;2023-04-24T04:24:35;2.60;;;2.40;;
18933;SDS011;9599;53.706;10.384;2023-04-24T04:27:04;2.77;;;2.40;;
18933;SDS011;9599;53.706;10.384;2023-04-24T04:29:40;2.40;;;2.20;;
18933;SDS011;9599;53.706;10.384;2023-04-24T04:32:10;2.77;;;2.33;;
18933;SDS011;9599;53.706;10.384;2023-04-24T04:34:39;2.50;;;2.30;;
18933;SDS011;9599;53.706;10.384;2023-04-24T04:37:10;2.50;;;2.30;;
18933;SDS011;9599;53.706;10.384;2023-04-24T04:39:53;2.40;;;2.20;;
18933;SDS011;9599;53.706;10.384;2023-04-24T04:42:24;2.40;;;2.20;;
18933;SDS011;9599;53.706;10.384;2023-04-24T04:44:53;2.50;;;2.30;;
18933;SDS011;9599;53.706;10.384;2023-04-24T04:47:28;2.47;;;2.27;;
18933;SDS011;9599;53.706;10.384;2023-04-24T04:50:00;2.53;;;2.33;;
18933;SDS011;9599;53.706;10.384;2023-04-24T04:52:31;2.83;;;2.50;;
18933;SDS011;9599;53.706;10.384;2023-04-24T04:55:13;3.57;;;2.40;;
18933;SDS011;9599;53.706;10.384;2023-04-24T04:58:06;5.40;;;2.27;;
18933;SDS011;9599;53.706;10.384;2023-04-24T05:00:36;2.30;;;2.07;;
18933;SDS011;9599;53.706;10.384;2023-04-24T05:03:13;2.37;;;2.10;;
18933;SDS011;9599;53.706;10.384;2023-04-24T05:05:48;2.73;;;2.20;;
18933;SDS011;9599;53.706;10.384;2023-04-24T05:08:18;2.33;;;2.13;;
18933;SDS011;9599;53.706;10.384;2023-04-24T05:10:54;2.63;;;2.10;;
18933;SDS011;9599;53.706;10.384;2023-04-24T05:13:24;2.50;;;2.30;;
18933;SDS011;9599;53.706;10.384;2023-04-24T05:16:09;2.53;;;2.33;;
18933;SDS011;9599;53.706;10.384;2023-04-24T05:18:37;2.07;;;1.90;;
18933;SDS011;9599;53.706;10.384;2023-04-24T05:21:07;2.40;;;2.20;;
18933;SDS011;9599;53.706;10.384;2023-04-24T05:23:38;2.23;;;2.03;;
18933;SDS011;9599;53.706;10.384;2023-04-24T05:26:07;2.33;;;2.13;;
18933;SDS011;9599;53.706;10.384;2023-04-24T05:28:35;2.77;;;2.10;;
18933;SDS011;9599;53.706;10.384;2023-04-24T05:31:07;2.20;;;2.00;;
18933;SDS011;9599;53.706;10.384;2023-04-24T05:33:36;2.10;;;1.90;;
18933;SDS011;9599;53.706;10.384;2023-04-24T05:36:04;2.83;;;2.10;;
18933;SDS011;9599;53.706;10.384;2023-04-24T05:38:34;2.10;;;1.90;;
18933;SDS011;9599;53.706;10.384;2023-04-24T05:41:03;2.63;;;1.90;;
18933;SDS011;9599;53.706;10.384;2023-04-24T05:43:32;2.23;;;2.03;;
18933;SDS011;9599;53.706;10.384;2023-04-24T05:46:00;2.20;;;1.93;;
18933;SDS011;9599;53.706;10.384;2023-04-24T05:48:28;2.17;;;1.90;;
18933;SDS011;9599;53.706;10.384;2023-04-24T05:51:00;1.97;;;1.60;;
18933;SDS011;9599;53.706;10.384;2023-04-24T05:53:28;2.03;;;1.83;;
18933;SDS011;9599;53.706;10.384;2023-04-24T05:55:55;2.17;;;1.97;;
18933;SDS011;9599;53.706;10.384;2023-04-24T05:58:23;2.23;;;1.80;;
18933;SDS011;9599;53.706;10.384;2023-04-24T06:00:53;2.17;;;1.80;;
18933;SDS011;9599;53.706;10.384;2023-04-24T06:03:21;1.67;;;1.57;;
18933;SDS011;9599;53.706;10.384;2023-04-24T06:05:49;1.70;;;1.60;;
18933;SDS011;9599;53.706;10.384;2023-04-24T06:08:20;2.10;;;1.90;;
18933;SDS011;9599;53.706;10.384;2023-04-24T06:10:48;2.00;;;1.70;;
18933;SDS011;9599;53.706;10.384;2023-04-24T06:13:19;1.60;;;1.50;;
18933;SDS011;9599;53.706;10.384;2023-04-24T06:16:08;1.93;;;1.50;;
18933;SDS011;9599;53.706;10.384;2023-04-24T06:18:39;1.57;;;1.40;;
18933;SDS011;9599;53.706;10.384;2023-04-24T06:21:07;2.07;;;1.87;;
18933;SDS011;9599;53.706;10.384;2023-04-24T06:23:35;1.87;;;1.63;;
18933;SDS011;9599;53.706;10.384;2023-04-24T06:26:04;1.63;;;1.50;;
18933;SDS011;9599;53.706;10.384;2023-04-24T06:28:31;1.70;;;1.60;;
18933;SDS011;9599;53.706;10.384;2023-04-24T06:31:00;1.50;;;1.40;;
18933;SDS011;9599;53.706;10.384;2023-04-24T06:33:30;1.77;;;1.60;;
18933;SDS011;9599;53.706;10.384;2023-04-24T06:35:58;2.03;;;1.70;;
18933;SDS011;9599;53.706;10.384;2023-04-24T06:38:26;3.00;;;1.50;;
18933;SDS011;9599;53.706;10.384;2023-04-24T06:40:55;1.47;;;1.37;;
18933;SDS011;9599;53.706;10.384;2023-04-24T06:43:23;1.93;;;1.70;;
18933;SDS011;9599;53.706;10.384;2023-04-24T06:45:51;1.73;;;1.63;;
18933;SDS011;9599;53.706;10.384;2023-04-24T06:48:19;1.60;;;1.50;;
18933;SDS011;9599;53.706;10.384;2023-04-24T06:50:48;2.23;;;1.60;;
18933;SDS011;9599;53.706;10.384;2023-04-24T06:53:16;1.80;;;1.70;;
18933;SDS011;9599;53.706;10.384;2023-04-24T06:55:44;1.77;;;1.67;;
18933;SDS011;9599;53.706;10.384;2023-04-24T06:58:12;1.43;;;1.33;;
18933;SDS011;9599;53.706;10.384;2023-04-24T07:00:41;2.00;;;1.73;;
18933;SDS011;9599;53.706;10.384;2023-04-24T07:03:09;1.70;;;1.60;;
18933;SDS011;9599;53.706;10.384;2023-04-24T07:05:37;2.00;;;1.90;;
18933;SDS011;9599;53.706;10.384;2023-04-24T07:08:06;2.13;;;1.70;;
18933;SDS011;9599;53.706;10.384;2023-04-24T07:10:37;2.00;;;1.90;;
18933;SDS011;9599;53.706;10.384;2023-04-24T07:13:05;2.20;;;1.80;;
18933;SDS011;9599;53.706;10.384;2023-04-24T07:15:34;2.30;;;2.10;;
18933;SDS011;9599;53.706;10.384;2023-04-24T07:18:02;1.90;;;1.80;;
18933;SDS011;9599;53.706;10.384;2023-04-24T07:20:31;2.17;;;1.93;;
18933;SDS011;9599;53.706;10.384;2023-04-24T07:23:00;2.43;;;1.97;;
18933;SDS011;9599;53.706;10.384;2023-04-24T07:25:29;2.10;;;2.00;;
18933;SDS011;9599;53.706;10.384;2023-04-24T07:27:57;1.93;;;1.83;;
18933;SDS011;9599;53.706;10.384;2023-04-24T07:30:25;2.40;;;2.20;;
18933;SDS011;9599;53.706;10.384;2023-04-24T07:32:54;2.53;;;1.97;;
18933;SDS011;9599;53.706;10.384;2023-04-24T07:35:23;2.77;;;2.30;;
18933;SDS011;9599;53.706;10.384;2023-04-24T07:37:52;2.37;;;2.00;;
18933;SDS011;9599;53.706;10.384;2023-04-24T07:40:20;2.17;;;1.97;;
18933;SDS011;9599;53.706;10.384;2023-04-24T07:42:50;2.90;;;2.17;;
18933;SDS011;9599;53.706;10.384;2023-04-24T07:45:18;2.43;;;2.23;;
18933;SDS011;9599;53.706;10.384;2023-04-24T07:47:46;2.30;;;2.10;;
18933;SDS011;9599;53.706;10.384;2023-04-24T07:50:14;2.73;;;2.53;;
18933;SDS011;9599;53.706;10.384;2023-04-24T07:52:42;2.40;;;2.20;;
18933;SDS011;9599;53.706;10.384;2023-04-24T07:55:10;2.80;;;2.30;;
18933;SDS011;9599;53.706;10.384;2023-04-24T07:57:38;2.40;;;2.20;;
18933;SDS011;9599;53.706;10.384;2023-04-24T08:00:08;3.60;;;2.43;;
18933;SDS011;9599;53.706;10.384;2023-04-24T08:02:36;3.83;;;2.50;;
18933;SDS011;9599;53.706;10.384;2023-04-24T08:05:05;2.80;;;2.60;;
18933;SDS011;9599;53.706;10.384;2023-04-24T08:07:34;2.83;;;2.60;;
18933;SDS011;9599;53.706;10.384;2023-04-24T08:10:02;2.67;;;2.47;;
18933;SDS011;9599;53.706;10.384;2023-04-24T08:12:31;3.00;;;2.70;;
18933;SDS011;9599;53.706;10.384;2023-04-24T08:14:58;2.80;;;2.50;;
18933;SDS011;9599;53.706;10.384;2023-04-24T08:17:28;2.80;;;2.60;;
18933;SDS011;9599;53.706;10.384;2023-04-24T08:19:58;3.33;;;2.70;;
18933;SDS011;9599;53.706;10.384;2023-04-24T08:22:28;3.23;;;2.93;;
18933;SDS011;9599;53.706;10.384;2023-04-24T08:24:56;3.00;;;2.80;;
18933;SDS011;9599;53.706;10.384;2023-04-24T08:27:25;3.27;;;2.97;;
18933;SDS011;9599;53.706;10.384;2023-04-24T08:29:53;3.27;;;2.80;;
18933;SDS011;9599;53.706;10.384;2023-04-24T08:32:21;3.50;;;3.20;;
18933;SDS011;9599;53.706;10.384;2023-04-24T08:34:51;3.20;;;2.80;;
18933;SDS011;9599;53.706;10.384;2023-04-24T08:37:19;3.20;;;2.90;;
18933;SDS011;9599;53.706;10.384;2023-04-24T08:39:47;3.30;;;3.00;;
18933;SDS011;9599;53.706;10.384;2023-04-24T08:42:16;3.60;;;3.30;;
18933;SDS011;9599;53.706;10.384;2023-04-24T08:44:45;2.90;;;2.70;;
18933;SDS011;9599;53.706;10.384;2023-04-24T08:47:14;3.50;;;3.20;;
18933;SDS011;9599;53.706;10.384;2023-04-24T08:49:43;3.70;;;3.30;;
18933;SDS011;9599;53.706;10.384;2023-04-24T08:52:13;4.50;;;3.30;;
18933;SDS011;9599;53.706;10.384;2023-04-24T08:54:42;4.27;;;3.70;;
18933;SDS011;9599;53.706;10.384;2023-04-24T08:57:12;4.70;;;3.50;;
18933;SDS011;9599;53.706;10.384;2023-04-24T08:59:41;3.90;;;3.50;;
18933;SDS011;9599;53.706;10.384;2023-04-24T09:02:11;3.97;;;3.57;;
18933;SDS011;9599;53.706;10.384;2023-04-24T09:04:41;3.90;;;3.20;;
18933;SDS011;9599;53.706;10.384;2023-04-24T09:07:12;3.97;;;3.60;;
18933;SDS011;9599;53.706;10.384;2023-04-24T09:09:41;3.83;;;3.53;;
18933;SDS011;9599;53.706;10.384;2023-04-24T09:12:10;4.57;;;4.17;;
18933;SDS011;9599;53.706;10.384;2023-04-24T09:14:39;4.80;;;4.30;;
18933;SDS011;9599;53.706;10.384;2023-04-24T09:17:11;5.17;;;4.50;;
18933;SDS011;9599;53.706;10.384;2023-04-24T09:19:39;5.50;;;5.00;;
18933;SDS011;9599;53.706;10.384;2023-04-24T09:22:09;5.70;;;5.10;;
18933;SDS011;9599;53.706;10.384;2023-04-24T09:24:38;5.43;;;4.93;;
18933;SDS011;9599;53.706;10.384;2023-04-24T09:27:06;5.30;;;4.80;;
18933;SDS011;9599;53.706;10.384;2023-04-24T09:29:36;5.93;;;5.30;;
18933;SDS011;9599;53.706;10.384;2023-04-24T09:32:18;6.10;;;5.50;;
18933;SDS011;9599;53.706;10.384;2023-04-24T09:34:48;5.83;;;5.30;;
18933;SDS011;9599;53.706;10.384;2023-04-24T09:37:27;5.60;;;5.10;;
18933;SDS011;9599;53.706;10.384;2023-04-24T09:40:10;5.10;;;4.60;;
18933;SDS011;9599;53.706;10.384;2023-04-24T09:42:43;4.67;;;4.27;;
18933;SDS011;9599;53.706;10.384;2023-04-24T09:45:12;4.17;;;3.70;;
18933;SDS011;9599;53.706;10.384;2023-04-24T09:47:43;4.40;;;4.00;;
18933;SDS011;9599;53.706;10.384;2023-04-24T09:50:14;3.83;;;3.53;;
18933;SDS011;9599;53.706;10.384;2023-04-24T09:52:46;4.50;;;4.10;;
18933;SDS011;9599;53.706;10.384;2023-04-24T09:55:27;4.40;;;3.73;;
18933;SDS011;9599;53.706;10.384;2023-04-24T09:57:56;4.40;;;4.00;;
18933;SDS011;9599;53.706;10.384;2023-04-24T10:00:27;4.50;;;4.10;;
18933;SDS011;9599;53.706;10.384;2023-04-24T10:02:57;4.73;;;4.33;;
18933;SDS011;9599;53.706;10.384;2023-04-24T10:05:28;4.97;;;4.47;;
18933;SDS011;9599;53.706;10.384;2023-04-24T10:07:58;5.80;;;4.60;;
18933;SDS011;9599;53.706;10.384;2023-04-24T10:10:32;5.80;;;5.30;;
18933;SDS011;9599;53.706;10.384;2023-04-24T10:13:01;6.17;;;5.57;;
18933;SDS011;9599;53.706;10.384;2023-04-24T10:15:29;6.10;;;5.50;;
18933;SDS011;9599;53.706;10.384;2023-04-24T10:17:57;5.87;;;5.27;;
18933;SDS011;9599;53.706;10.384;2023-04-24T10:20:27;6.10;;;5.27;;
18933;SDS011;9599;53.706;10.384;2023-04-24T10:22:57;6.83;;;5.10;;
18933;SDS011;9599;53.706;10.384;2023-04-24T10:25:26;5.80;;;5.30;;
18933;SDS011;9599;53.706;10.384;2023-04-24T10:27:57;6.10;;;5.50;;
18933;SDS011;9599;53.706;10.384;2023-04-24T10:30:27;6.13;;;5.53;;
18933;SDS011;9599;53.706;10.384;2023-04-24T10:32:56;5.40;;;4.90;;
18933;SDS011;9599;53.706;10.384;2023-04-24T10:35:24;6.10;;;5.50;;
18933;SDS011;9599;53.706;10.384;2023-04-24T10:37:54;5.90;;;5.33;;
18933;SDS011;9599;53.706;10.384;2023-04-24T10:40:26;5.67;;;5.07;;
18933;SDS011;9599;53.706;10.384;2023-04-24T10:42:57;5.87;;;5.30;;
18933;SDS011;9599;53.706;10.384;2023-04-24T10:45:25;6.40;;;5.43;;
18933;SDS011;9599;53.706;10.384;2023-04-24T10:47:56;5.90;;;5.33;;
18933;SDS011;9599;53.706;10.384;2023-04-24T10:50:41;7.70;;;6.10;;
18933;SDS011;9599;53.706;10.384;2023-04-24T10:53:14;6.83;;;6.17;;
18933;SDS011;9599;53.706;10.384;2023-04-24T10:55:47;7.03;;;6.07;;
18933;SDS011;9599;53.706;10.384;2023-04-24T10:58:18;6.43;;;5.73;;
18933;SDS011;9599;53.706;10.384;2023-04-24T11:00:55;6.10;;;5.50;;
18933;SDS011;9599;53.706;10.384;2023-04-24T11:03:26;9.30;;;6.50;;
18933;SDS011;9599;53.706;10.384;2023-04-24T11:05:56;7.07;;;6.37;;
18933;SDS011;9599;53.706;10.384;2023-04-24T11:08:27;7.63;;;6.83;;
18933;SDS011;9599;53.706;10.384;2023-04-24T11:11:03;7.60;;;6.80;;
18933;SDS011;9599;53.706;10.384;2023-04-24T11:16:35;9.73;;;6.80;;
18933;SDS011;9599;53.706;10.384;2023-04-24T11:19:09;7.73;;;6.90;;
18933;SDS011;9599;53.706;10.384;2023-04-24T11:21:45;8.87;;;6.90;;
18933;SDS011;9599;53.706;10.384;2023-04-24T11:24:30;8.33;;;6.80;;
18933;SDS011;9599;53.706;10.384;2023-04-24T11:27:05;9.63;;;7.83;;
18933;SDS011;9599;53.706;10.384;2023-04-24T11:29:42;9.73;;;7.57;;
18933;SDS011;9599;53.706;10.384;2023-04-24T11:32:19;9.33;;;7.00;;
18933;SDS011;9599;53.706;10.384;2023-04-24T11:34:52;7.90;;;7.10;;
18933;SDS011;9599;53.706;10.384;2023-04-24T11:37:22;10.70;;;7.70;;
18933;SDS011;9599;53.706;10.384;2023-04-24T11:39:51;10.20;;;7.67;;
18933;SDS011;9599;53.706;10.384;2023-04-24T11:42:20;9.77;;;7.37;;
18933;SDS011;9599;53.706;10.384;2023-04-24T11:44:51;9.23;;;7.27;;
18933;SDS011;9599;53.706;10.384;2023-04-24T11:47:19;9.77;;;7.50;;
18933;SDS011;9599;53.706;10.384;2023-04-24T11:49:54;10.27;;;7.97;;
18933;SDS011;9599;53.706;10.384;2023-04-24T11:52:22;9.63;;;7.80;;
18933;SDS011;9599;53.706;10.384;2023-04-24T11:54:50;10.27;;;7.90;;
18933;SDS011;9599;53.706;10.384;2023-04-24T11:57:19;10.23;;;7.60;;
18933;SDS011;9599;53.706;10.384;2023-04-24T11:59:48;9.70;;;8.60;;
18933;SDS011;9599;53.706;10.384;2023-04-24T12:02:21;9.53;;;7.93;;
18933;SDS011;9599;53.706;10.384;2023-04-24T12:04:51;9.93;;;7.57;;
18933;SDS011;9599;53.706;10.384;2023-04-24T12:07:19;10.10;;;8.43;;
18933;SDS011;9599;53.706;10.384;2023-04-24T12:09:50;8.97;;;6.93;;
18933;SDS011;9599;53.706;10.384;2023-04-24T12:12:24;8.50;;;7.10;;
18933;SDS011;9599;53.706;10.384;2023-04-24T12:14:53;8.37;;;7.17;;
18933;SDS011;9599;53.706;10.384;2023-04-24T12:17:25;8.00;;;6.90;;
18933;SDS011;9599;53.706;10.384;2023-04-24T12:19:58;8.33;;;7.13;;
18933;SDS011;9599;53.706;10.384;2023-04-24T12:22:27;8.50;;;7.00;;
18933;SDS011;9599;53.706;10.384;2023-04-24T12:24:56;9.13;;;7.07;;
18933;SDS011;9599;53.706;10.384;2023-04-24T12:27:25;7.87;;;6.83;;
18933;SDS011;9599;53.706;10.384;2023-04-24T12:29:53;9.00;;;7.30;;
18933;SDS011;9599;53.706;10.384;2023-04-24T12:32:24;11.37;;;7.27;;
18933;SDS011;9599;53.706;10.384;2023-04-24T12:34:54;8.30;;;6.83;;
18933;SDS011;9599;53.706;10.384;2023-04-24T12:37:23;7.80;;;6.63;;
18933;SDS011;9599;53.706;10.384;2023-04-24T12:39:58;7.23;;;6.53;;
18933;SDS011;9599;53.706;10.384;2023-04-24T12:42:27;6.97;;;5.60;;
18933;SDS011;9599;53.706;10.384;2023-04-24T12:44:57;6.47;;;5.80;;
18933;SDS011;9599;53.706;10.384;2023-04-24T12:47:28;7.30;;;6.00;;
18933;SDS011;9599;53.706;10.384;2023-04-24T12:49:56;7.07;;;5.43;;
18933;SDS011;9599;53.706;10.384;2023-04-24T12:52:24;6.17;;;5.40;;
18933;SDS011;9599;53.706;10.384;2023-04-24T12:54:54;6.70;;;5.57;;
18933;SDS011;9599;53.706;10.384;2023-04-24T12:57:23;8.60;;;6.40;;
18933;SDS011;9599;53.706;10.384;2023-04-24T12:59:53;6.93;;;5.63;;
18933;SDS011;9599;53.706;10.384;2023-04-24T13:02:21;6.40;;;5.70;;
18933;SDS011;9599;53.706;10.384;2023-04-24T13:04:52;6.20;;;5.60;;
18933;SDS011;9599;53.706;10.384;2023-04-24T13:07:21;7.70;;;5.33;;
18933;SDS011;9599;53.706;10.384;2023-04-24T13:09:49;5.90;;;5.30;;
18933;SDS011;9599;53.706;10.384;2023-04-24T13:12:18;5.73;;;5.13;;
18933;SDS011;9599;53.706;10.384;2023-04-24T13:14:47;6.97;;;5.43;;
18933;SDS011;9599;53.706;10.384;2023-04-24T13:17:15;6.10;;;5.50;;
18933;SDS011;9599;53.706;10.384;2023-04-24T13:19:43;9.47;;;5.33;;
18933;SDS011;9599;53.706;10.384;2023-04-24T13:22:13;6.13;;;5.47;;
18933;SDS011;9599;53.706;10.384;2023-04-24T13:24:41;6.07;;;5.40;;
18933;SDS011;9599;53.706;10.384;2023-04-24T13:27:09;7.23;;;5.47;;
18933;SDS011;9599;53.706;10.384;2023-04-24T13:29:40;7.40;;;5.60;;
18933;SDS011;9599;53.706;10.384;2023-04-24T13:32:08;6.10;;;5.50;;
18933;SDS011;9599;53.706;10.384;2023-04-24T13:34:37;6.83;;;5.50;;
18933;SDS011;9599;53.706;10.384;2023-04-24T13:37:05;5.73;;;5.10;;
18933;SDS011;9599;53.706;10.384;2023-04-24T13:39:35;5.20;;;4.70;;
18933;SDS011;9599;53.706;10.384;2023-04-24T13:42:03;5.37;;;4.87;;
18933;SDS011;9599;53.706;10.384;2023-04-24T13:44:31;5.53;;;4.87;;
18933;SDS011;9599;53.706;10.384;2023-04-24T13:46:59;5.20;;;4.70;;
18933;SDS011;9599;53.706;10.384;2023-04-24T13:49:27;4.70;;;4.30;;
18933;SDS011;9599;53.706;10.384;2023-04-24T13:51:56;5.57;;;5.00;;
18933;SDS011;9599;53.706;10.384;2023-04-24T13:54:24;5.57;;;4.97;;
18933;SDS011;9599;53.706;10.384;2023-04-24T13:56:55;5.23;;;4.77;;
18933;SDS011;9599;53.706;10.384;2023-04-24T13:59:25;5.87;;;4.80;;
18933;SDS011;9599;53.706;10.384;2023-04-24T14:01:53;5.70;;;5.10;;
18933;SDS011;9599;53.706;10.384;2023-04-24T14:04:21;5.37;;;4.87;;
18933;SDS011;9599;53.706;10.384;2023-04-24T14:06:49;5.80;;;5.20;;
18933;SDS011;9599;53.706;10.384;2023-04-24T14:09:17;5.73;;;5.13;;
18933;SDS011;9599;53.706;10.384;2023-04-24T14:11:45;6.93;;;5.10;;
18933;SDS011;9599;53.706;10.384;2023-04-24T14:14:14;5.50;;;5.00;;
18933;SDS011;9599;53.706;10.384;2023-04-24T14:16:42;4.80;;;4.00;;
18933;SDS011;9599;53.706;10.384;2023-04-24T14:19:10;4.27;;;3.87;;
18933;SDS011;9599;53.706;10.384;2023-04-24T14:21:37;4.47;;;4.07;;
18933;SDS011;9599;53.706;10.384;2023-04-24T14:24:06;4.77;;;4.20;;
18933;SDS011;9599;53.706;10.384;2023-04-24T14:26:34;4.87;;;4.07;;
18933;SDS011;9599;53.706;10.384;2023-04-24T14:29:02;5.17;;;4.67;;
18933;SDS011;9599;53.706;10.384;2023-04-24T14:31:41;4.80;;;4.40;;
18933;SDS011;9599;53.706;10.384;2023-04-24T14:34:09;4.50;;;4.10;;
18933;SDS011;9599;53.706;10.384;2023-04-24T14:36:37;5.67;;;5.00;;
18933;SDS011;9599;53.706;10.384;2023-04-24T14:39:05;5.07;;;4.57;;
18933;SDS011;9599;53.706;10.384;2023-04-24T14:41:34;5.20;;;4.70;;
18933;SDS011;9599;53.706;10.384;2023-04-24T14:44:03;5.23;;;4.73;;
18933;SDS011;9599;53.706;10.384;2023-04-24T14:46:31;6.30;;;4.87;;
18933;SDS011;9599;53.706;10.384;2023-04-24T14:49:01;5.30;;;4.80;;
18933;SDS011;9599;53.706;10.384;2023-04-24T14:51:29;6.00;;;4.90;;
18933;SDS011;9599;53.706;10.384;2023-04-24T14:53:57;4.90;;;4.40;;
18933;SDS011;9599;53.706;10.384;2023-04-24T14:56:25;5.20;;;4.70;;
18933;SDS011;9599;53.706;10.384;2023-04-24T14:58:53;5.17;;;4.67;;
18933;SDS011;9599;53.706;10.384;2023-04-24T15:01:22;5.20;;;4.70;;
18933;SDS011;9599;53.706;10.384;2023-04-24T15:03:51;4.80;;;4.40;;
18933;SDS011;9599;53.706;10.384;2023-04-24T15:06:21;5.53;;;4.57;;
18933;SDS011;9599;53.706;10.384;2023-04-24T15:08:48;5.13;;;4.63;;